createdAt,value
2017-12-08T00:00:02.750Z,0
2017-12-08T00:00:43.344Z,0
2017-12-08T00:01:23.917Z,0
2017-12-08T00:02:04.526Z,0
2017-12-08T00:02:45.109Z,0
2017-12-08T00:03:25.764Z,0
2017-12-08T00:04:06.336Z,0
2017-12-08T00:04:46.952Z,0
2017-12-08T00:05:27.522Z,0
2017-12-08T00:06:08.155Z,0
2017-12-08T00:06:48.762Z,0
2017-12-08T00:07:29.340Z,0
2017-12-08T00:08:09.919Z,0
2017-12-08T00:08:50.533Z,0
2017-12-08T00:09:31.147Z,0
2017-12-08T00:10:11.751Z,0
2017-12-08T00:10:52.339Z,0
2017-12-08T00:11:32.944Z,0
2017-12-08T00:12:13.525Z,0
2017-12-08T00:12:54.106Z,0
2017-12-08T00:13:34.694Z,0
2017-12-08T00:14:15.308Z,0
2017-12-08T00:14:55.917Z,0
2017-12-08T00:15:36.564Z,0
2017-12-08T00:16:17.173Z,0
2017-12-08T00:16:57.767Z,0
2017-12-08T00:17:38.414Z,0
2017-12-08T00:18:19.009Z,0
2017-12-08T00:18:59.625Z,0
2017-12-08T00:19:40.173Z,0
2017-12-08T00:20:20.781Z,0
2017-12-08T00:21:01.353Z,0
2017-12-08T00:21:41.932Z,0
2017-12-08T00:22:22.542Z,0
2017-12-08T00:23:03.139Z,0
2017-12-08T00:23:43.746Z,0
2017-12-08T00:24:24.329Z,0
2017-12-08T00:25:04.960Z,0
2017-12-08T00:25:45.560Z,0
2017-12-08T00:26:26.133Z,0
2017-12-08T00:27:06.764Z,0
2017-12-08T00:27:47.383Z,0
2017-12-08T00:28:28.007Z,0
2017-12-08T00:29:08.666Z,0
2017-12-08T00:29:49.245Z,0
2017-12-08T00:30:29.838Z,0
2017-12-08T00:31:10.430Z,0
2017-12-08T00:31:51.010Z,0
2017-12-08T00:32:31.629Z,0
2017-12-08T00:33:12.374Z,0
2017-12-08T00:33:53.016Z,0
2017-12-08T00:34:33.674Z,0
2017-12-08T00:35:14.289Z,0
2017-12-08T00:35:54.930Z,0
2017-12-08T00:36:35.561Z,0
2017-12-08T00:37:16.107Z,0
2017-12-08T00:37:56.683Z,0
2017-12-08T00:38:37.285Z,0
2017-12-08T00:39:17.895Z,0
2017-12-08T00:39:58.506Z,0
2017-12-08T00:40:39.096Z,0
2017-12-08T00:41:19.694Z,0
2017-12-08T00:42:00.279Z,0
2017-12-08T00:42:40.878Z,0
2017-12-08T00:43:21.447Z,0
2017-12-08T00:44:02.011Z,0
2017-12-08T00:44:42.586Z,0
2017-12-08T00:45:23.177Z,0
2017-12-08T00:46:03.784Z,0
2017-12-08T00:46:44.378Z,0
2017-12-08T00:47:24.994Z,0
2017-12-08T00:48:05.574Z,0
2017-12-08T00:48:46.160Z,0
2017-12-08T00:49:26.749Z,0
2017-12-08T00:50:07.346Z,0
2017-12-08T00:50:47.917Z,0
2017-12-08T00:51:28.500Z,0
2017-12-08T00:52:09.100Z,0
2017-12-08T00:52:49.678Z,0
2017-12-08T00:53:30.272Z,0
2017-12-08T00:54:10.874Z,0
2017-12-08T00:54:51.462Z,0
2017-12-08T00:55:32.023Z,0
2017-12-08T00:56:12.610Z,0
2017-12-08T00:56:53.265Z,0
2017-12-08T00:57:33.841Z,0
2017-12-08T00:58:14.457Z,0
2017-12-08T00:58:55.024Z,0
2017-12-08T00:59:35.600Z,0
2017-12-08T01:00:16.174Z,0
2017-12-08T01:00:56.745Z,0
2017-12-08T01:01:37.344Z,0
2017-12-08T01:02:17.915Z,0
2017-12-08T01:02:58.484Z,0
2017-12-08T01:03:39.060Z,0
2017-12-08T01:04:19.641Z,0
2017-12-08T01:05:00.217Z,0
2017-12-08T01:05:40.779Z,0
2017-12-08T01:06:21.372Z,0
2017-12-08T01:07:01.936Z,0
2017-12-08T01:07:42.504Z,0
2017-12-08T01:08:23.079Z,0
2017-12-08T01:09:03.653Z,0
2017-12-08T01:09:44.244Z,0
2017-12-08T01:10:24.841Z,0
2017-12-08T01:11:05.405Z,0
2017-12-08T01:11:45.981Z,0
2017-12-08T01:12:26.584Z,0
2017-12-08T01:13:07.187Z,0
2017-12-08T01:13:47.798Z,0
2017-12-08T01:14:28.389Z,0
2017-12-08T01:15:08.958Z,0
2017-12-08T01:15:49.530Z,0
2017-12-08T01:16:30.099Z,0
2017-12-08T01:17:11.366Z,0
2017-12-08T01:17:51.946Z,0
2017-12-08T01:18:32.526Z,0
2017-12-08T01:19:13.090Z,0
2017-12-08T01:19:53.689Z,0
2017-12-08T01:20:34.293Z,0
2017-12-08T01:21:14.860Z,0
2017-12-08T01:21:55.426Z,0
2017-12-08T01:22:36.022Z,0
2017-12-08T01:23:16.631Z,0
2017-12-08T01:23:57.220Z,0
2017-12-08T01:24:37.778Z,0
2017-12-08T01:25:18.384Z,0
2017-12-08T01:25:58.943Z,0
2017-12-08T01:26:39.518Z,0
2017-12-08T01:27:20.086Z,0
2017-12-08T01:28:00.682Z,0
2017-12-08T01:28:41.265Z,0
2017-12-08T01:29:21.837Z,0
2017-12-08T01:30:02.426Z,0
2017-12-08T01:30:43.000Z,0
2017-12-08T01:31:23.610Z,0
2017-12-08T01:32:04.204Z,0
2017-12-08T01:32:44.781Z,0
2017-12-08T01:33:25.374Z,0
2017-12-08T01:34:05.946Z,0
2017-12-08T01:34:46.523Z,0
2017-12-08T01:35:27.095Z,0
2017-12-08T01:36:07.697Z,0
2017-12-08T01:36:48.336Z,0
2017-12-08T01:37:28.923Z,0
2017-12-08T01:38:09.513Z,0
2017-12-08T01:38:50.110Z,0
2017-12-08T01:39:30.713Z,0
2017-12-08T01:40:11.301Z,0
2017-12-08T01:40:51.870Z,0
2017-12-08T01:41:32.468Z,0
2017-12-08T01:42:13.060Z,0
2017-12-08T01:42:53.727Z,0
2017-12-08T01:43:34.307Z,0
2017-12-08T01:44:14.896Z,0
2017-12-08T01:44:55.497Z,0
2017-12-08T01:45:36.046Z,0
2017-12-08T01:46:16.632Z,0
2017-12-08T01:46:57.269Z,0
2017-12-08T01:47:37.871Z,0
2017-12-08T01:48:18.494Z,0
2017-12-08T01:48:59.084Z,0
2017-12-08T01:49:39.646Z,0
2017-12-08T01:50:20.244Z,0
2017-12-08T01:51:00.833Z,0
2017-12-08T01:51:41.447Z,0
2017-12-08T01:52:22.033Z,0
2017-12-08T01:53:02.603Z,0
2017-12-08T01:53:43.221Z,0
2017-12-08T01:54:23.807Z,0
2017-12-08T01:55:04.384Z,0
2017-12-08T01:55:44.980Z,0
2017-12-08T01:56:25.559Z,0
2017-12-08T01:57:06.143Z,0
2017-12-08T01:57:46.748Z,0
2017-12-08T01:58:27.351Z,0
2017-12-08T01:59:07.910Z,0
2017-12-08T01:59:48.542Z,0
2017-12-08T02:00:29.118Z,0
2017-12-08T02:01:09.682Z,0
2017-12-08T02:01:50.266Z,0
2017-12-08T02:02:30.848Z,0
2017-12-08T02:03:11.407Z,0
2017-12-08T02:03:51.984Z,0
2017-12-08T02:04:32.541Z,0
2017-12-08T02:05:13.123Z,0
2017-12-08T02:05:53.713Z,0
2017-12-08T02:06:34.286Z,0
2017-12-08T02:07:14.870Z,0
2017-12-08T02:07:55.457Z,0
2017-12-08T02:08:36.072Z,0
2017-12-08T02:09:16.674Z,0
2017-12-08T02:09:57.272Z,0
2017-12-08T02:10:37.834Z,0
2017-12-08T02:11:18.394Z,0
2017-12-08T02:11:58.963Z,0
2017-12-08T02:12:39.538Z,0
2017-12-08T02:13:20.121Z,0
2017-12-08T02:14:00.728Z,0
2017-12-08T02:14:41.294Z,0
2017-12-08T02:15:21.905Z,0
2017-12-08T02:16:02.493Z,0
2017-12-08T02:16:43.063Z,0
2017-12-08T02:17:23.628Z,0
2017-12-08T02:18:04.198Z,0
2017-12-08T02:18:44.777Z,0
2017-12-08T02:19:25.349Z,0
2017-12-08T02:20:05.913Z,0
2017-12-08T02:20:46.500Z,0
2017-12-08T02:21:27.090Z,0
2017-12-08T02:22:07.668Z,0
2017-12-08T02:22:48.259Z,0
2017-12-08T02:23:28.855Z,0
2017-12-08T02:24:09.425Z,0
2017-12-08T02:24:50.061Z,0
2017-12-08T02:25:30.637Z,0
2017-12-08T02:26:11.208Z,0
2017-12-08T02:26:51.776Z,0
2017-12-08T02:27:32.352Z,0
2017-12-08T02:28:12.933Z,0
2017-12-08T02:28:53.513Z,0
2017-12-08T02:29:34.099Z,0
2017-12-08T02:30:14.666Z,0
2017-12-08T02:30:55.241Z,0
2017-12-08T02:31:35.812Z,0
2017-12-08T02:32:16.378Z,0
2017-12-08T02:32:56.960Z,0
2017-12-08T02:33:37.534Z,0
2017-12-08T02:34:18.134Z,0
2017-12-08T02:34:58.722Z,0
2017-12-08T02:35:39.280Z,0
2017-12-08T02:36:19.847Z,0
2017-12-08T02:37:00.412Z,0
2017-12-08T02:37:41.021Z,0
2017-12-08T02:38:21.597Z,0
2017-12-08T02:39:02.181Z,0
2017-12-08T02:39:42.741Z,0
2017-12-08T02:40:23.318Z,0
2017-12-08T02:41:03.893Z,0
2017-12-08T02:41:44.490Z,0
2017-12-08T02:42:25.086Z,0
2017-12-08T02:43:05.676Z,0
2017-12-08T02:43:46.260Z,0
2017-12-08T02:44:26.848Z,0
2017-12-08T02:45:07.407Z,0
2017-12-08T02:45:48.145Z,0
2017-12-08T02:46:28.721Z,0
2017-12-08T02:47:09.310Z,0
2017-12-08T02:47:49.910Z,0
2017-12-08T02:48:30.472Z,0
2017-12-08T02:49:11.034Z,0
2017-12-08T02:49:51.602Z,0
2017-12-08T02:50:32.189Z,0
2017-12-08T02:51:12.760Z,0
2017-12-08T02:51:53.352Z,0
2017-12-08T02:52:33.900Z,0
2017-12-08T02:53:14.471Z,0
2017-12-08T02:53:55.066Z,0
2017-12-08T02:54:35.670Z,0
2017-12-08T02:55:16.248Z,0
2017-12-08T02:55:56.819Z,0
2017-12-08T02:56:37.395Z,0
2017-12-08T02:57:17.966Z,0
2017-12-08T02:57:58.568Z,0
2017-12-08T02:58:39.138Z,0
2017-12-08T02:59:19.704Z,0
2017-12-08T03:00:00.277Z,0
2017-12-08T03:00:40.865Z,0
2017-12-08T03:01:21.432Z,0
2017-12-08T03:02:02.006Z,0
2017-12-08T03:02:42.574Z,0
2017-12-08T03:03:23.138Z,0
2017-12-08T03:04:03.705Z,0
2017-12-08T03:04:44.434Z,0
2017-12-08T03:05:25.013Z,0
2017-12-08T03:06:05.589Z,0
2017-12-08T03:06:46.168Z,0
2017-12-08T03:07:26.726Z,0
2017-12-08T03:08:07.302Z,0
2017-12-08T03:08:47.858Z,0
2017-12-08T03:09:28.426Z,0
2017-12-08T03:10:08.997Z,0
2017-12-08T03:10:49.571Z,0
2017-12-08T03:11:30.129Z,0
2017-12-08T03:12:10.768Z,0
2017-12-08T03:12:51.320Z,0
2017-12-08T03:13:31.890Z,0
2017-12-08T03:14:12.456Z,0
2017-12-08T03:14:53.024Z,0
2017-12-08T03:15:33.592Z,0
2017-12-08T03:16:14.169Z,0
2017-12-08T03:16:54.781Z,0
2017-12-08T03:17:35.397Z,0
2017-12-08T03:18:15.956Z,0
2017-12-08T03:18:56.528Z,0
2017-12-08T03:19:37.124Z,0
2017-12-08T03:20:17.687Z,0
2017-12-08T03:20:58.254Z,0
2017-12-08T03:21:38.834Z,0
2017-12-08T03:22:19.401Z,0
2017-12-08T03:22:59.990Z,0
2017-12-08T03:23:40.584Z,0
2017-12-08T03:24:21.170Z,0
2017-12-08T03:25:01.749Z,0
2017-12-08T03:25:42.345Z,0
2017-12-08T03:26:22.931Z,0
2017-12-08T03:27:03.506Z,0
2017-12-08T03:27:44.104Z,0
2017-12-08T03:28:24.686Z,0
2017-12-08T03:29:05.303Z,0
2017-12-08T03:29:45.886Z,0
2017-12-08T03:30:26.491Z,0
2017-12-08T03:31:07.069Z,0
2017-12-08T03:31:47.639Z,0
2017-12-08T03:32:28.198Z,0
2017-12-08T03:33:08.767Z,0
2017-12-08T03:33:49.352Z,0
2017-12-08T03:34:29.939Z,0
2017-12-08T03:35:10.517Z,0
2017-12-08T03:35:51.105Z,0
2017-12-08T03:36:31.683Z,0
2017-12-08T03:37:12.267Z,0
2017-12-08T03:37:52.850Z,0
2017-12-08T03:38:33.470Z,0
2017-12-08T03:39:14.016Z,0
2017-12-08T03:39:54.585Z,0
2017-12-08T03:40:35.143Z,0
2017-12-08T03:41:15.738Z,0
2017-12-08T03:41:56.305Z,0
2017-12-08T03:42:36.875Z,0
2017-12-08T03:43:17.445Z,0
2017-12-08T03:43:58.031Z,0
2017-12-08T03:44:38.636Z,0
2017-12-08T03:45:19.200Z,0
2017-12-08T03:45:59.773Z,0
2017-12-08T03:46:40.358Z,0
2017-12-08T03:47:20.950Z,0
2017-12-08T03:48:01.541Z,0
2017-12-08T03:48:42.179Z,0
2017-12-08T03:49:22.755Z,0
2017-12-08T03:50:03.343Z,0
2017-12-08T03:50:43.905Z,0
2017-12-08T03:51:24.503Z,0
2017-12-08T03:52:05.058Z,0
2017-12-08T03:52:45.636Z,0
2017-12-08T03:53:26.205Z,0
2017-12-08T03:54:06.784Z,0
2017-12-08T03:54:47.347Z,0
2017-12-08T03:55:27.913Z,0
2017-12-08T03:56:08.472Z,0
2017-12-08T03:56:49.044Z,0
2017-12-08T03:57:29.610Z,0
2017-12-08T03:58:10.181Z,0
2017-12-08T03:58:50.747Z,0
2017-12-08T03:59:31.334Z,0
2017-12-08T04:00:11.929Z,0
2017-12-08T04:00:52.516Z,0
2017-12-08T04:01:33.095Z,0
2017-12-08T04:02:13.694Z,0
2017-12-08T04:02:54.263Z,0
2017-12-08T04:03:34.865Z,0
2017-12-08T04:04:15.440Z,0
2017-12-08T04:04:56.017Z,0
2017-12-08T04:05:36.592Z,0
2017-12-08T04:06:17.162Z,0
2017-12-08T04:06:57.739Z,0
2017-12-08T04:07:38.312Z,0
2017-12-08T04:08:18.896Z,0
2017-12-08T04:08:59.484Z,0
2017-12-08T04:09:40.058Z,0
2017-12-08T04:10:20.629Z,0
2017-12-08T04:11:01.222Z,0
2017-12-08T04:11:41.789Z,0
2017-12-08T04:12:22.358Z,0
2017-12-08T04:13:02.954Z,0
2017-12-08T04:13:43.529Z,0
2017-12-08T04:14:24.095Z,0
2017-12-08T04:15:04.707Z,0
2017-12-08T04:15:45.317Z,0
2017-12-08T04:16:25.993Z,0
2017-12-08T04:17:06.605Z,0
2017-12-08T04:17:47.179Z,0
2017-12-08T04:18:27.771Z,0
2017-12-08T04:19:08.366Z,0
2017-12-08T04:19:48.935Z,0
2017-12-08T04:20:29.502Z,0
2017-12-08T04:21:10.072Z,0
2017-12-08T04:21:50.647Z,0
2017-12-08T04:22:31.217Z,0
2017-12-08T04:23:11.787Z,0
2017-12-08T04:23:52.354Z,0
2017-12-08T04:24:32.918Z,0
2017-12-08T04:25:13.520Z,0
2017-12-08T04:25:54.084Z,0
2017-12-08T04:26:34.662Z,0
2017-12-08T04:27:15.233Z,0
2017-12-08T04:27:55.826Z,0
2017-12-08T04:28:36.392Z,0
2017-12-08T04:29:16.968Z,0
2017-12-08T04:29:57.554Z,0
2017-12-08T04:30:38.159Z,0
2017-12-08T04:31:18.722Z,0
2017-12-08T04:31:59.281Z,0
2017-12-08T04:32:39.868Z,0
2017-12-08T04:33:20.441Z,0
2017-12-08T04:34:01.064Z,0
2017-12-08T04:34:41.628Z,0
2017-12-08T04:35:22.197Z,0
2017-12-08T04:36:02.750Z,0
2017-12-08T04:36:43.330Z,0
2017-12-08T04:37:23.906Z,0
2017-12-08T04:38:04.492Z,0
2017-12-08T04:38:45.062Z,0
2017-12-08T04:39:25.632Z,0
2017-12-08T04:40:06.200Z,0
2017-12-08T04:40:46.782Z,0
2017-12-08T04:41:27.408Z,0
2017-12-08T04:42:07.969Z,0
2017-12-08T04:42:48.552Z,0
2017-12-08T04:43:29.179Z,0
2017-12-08T04:44:09.746Z,0
2017-12-08T04:44:50.321Z,0
2017-12-08T04:45:30.931Z,0
2017-12-08T04:46:11.507Z,0
2017-12-08T04:46:52.084Z,0
2017-12-08T04:47:32.648Z,0
2017-12-08T04:48:13.224Z,0
2017-12-08T04:48:53.835Z,0
2017-12-08T04:49:34.434Z,0
2017-12-08T04:50:15.018Z,0
2017-12-08T04:50:55.615Z,0
2017-12-08T04:51:36.187Z,0
2017-12-08T04:52:16.795Z,0
2017-12-08T04:52:57.370Z,0
2017-12-08T04:53:38.012Z,0
2017-12-08T04:54:18.582Z,0
2017-12-08T04:54:59.183Z,0
2017-12-08T04:55:39.765Z,0
2017-12-08T04:56:20.328Z,0
2017-12-08T04:57:00.887Z,0
2017-12-08T04:57:41.479Z,0
2017-12-08T04:58:22.079Z,0
2017-12-08T04:59:02.666Z,0
2017-12-08T04:59:43.253Z,0
2017-12-08T05:00:23.824Z,0
2017-12-08T05:01:04.397Z,0
2017-12-08T05:01:44.969Z,0
2017-12-08T05:02:25.542Z,0
2017-12-08T05:03:06.140Z,0
2017-12-08T05:03:46.728Z,0
2017-12-08T05:04:27.301Z,0
2017-12-08T05:05:07.915Z,0
2017-12-08T05:05:48.491Z,0
2017-12-08T05:06:29.064Z,0
2017-12-08T05:07:09.641Z,0
2017-12-08T05:07:50.213Z,0
2017-12-08T05:08:30.813Z,0
2017-12-08T05:09:11.439Z,0
2017-12-08T05:09:52.009Z,0
2017-12-08T05:10:32.597Z,0
2017-12-08T05:11:13.166Z,0
2017-12-08T05:11:53.808Z,0
2017-12-08T05:12:34.379Z,0
2017-12-08T05:13:14.947Z,0
2017-12-08T05:13:55.549Z,0
2017-12-08T05:14:36.111Z,0
2017-12-08T05:15:16.699Z,0
2017-12-08T05:15:57.267Z,0
2017-12-08T05:16:37.846Z,0
2017-12-08T05:17:18.469Z,0
2017-12-08T05:17:59.053Z,0
2017-12-08T05:18:39.633Z,0
2017-12-08T05:19:20.275Z,0
2017-12-08T05:20:00.858Z,0
2017-12-08T05:20:41.429Z,0
2017-12-08T05:21:22.017Z,0
2017-12-08T05:22:02.578Z,0
2017-12-08T05:22:43.151Z,0
2017-12-08T05:23:23.745Z,0
2017-12-08T05:24:04.312Z,0
2017-12-08T05:24:44.904Z,0
2017-12-08T05:25:25.513Z,0
2017-12-08T05:26:06.039Z,0
2017-12-08T05:26:46.612Z,4
2017-12-08T05:27:27.202Z,4
2017-12-08T05:28:07.784Z,4
2017-12-08T05:28:48.365Z,4
2017-12-08T05:29:28.946Z,4
2017-12-08T05:30:09.542Z,4
2017-12-08T05:30:50.111Z,4
2017-12-08T05:31:30.704Z,4
2017-12-08T05:32:11.300Z,4
2017-12-08T05:32:51.878Z,4
2017-12-08T05:33:32.461Z,4
2017-12-08T05:34:13.033Z,4
2017-12-08T05:34:53.607Z,4
2017-12-08T05:35:34.184Z,4
2017-12-08T05:36:14.764Z,4
2017-12-08T05:36:55.335Z,4
2017-12-08T05:37:35.926Z,4
2017-12-08T05:38:16.501Z,4
2017-12-08T05:38:57.085Z,4
2017-12-08T05:39:37.692Z,4
2017-12-08T05:40:18.257Z,4
2017-12-08T05:40:58.817Z,4
2017-12-08T05:41:39.364Z,4
2017-12-08T05:42:19.951Z,4
2017-12-08T05:43:00.521Z,4
2017-12-08T05:43:41.084Z,4
2017-12-08T05:44:21.685Z,4
2017-12-08T05:45:02.286Z,4
2017-12-08T05:45:43.847Z,4
2017-12-08T05:46:24.466Z,4
2017-12-08T05:47:05.066Z,4
2017-12-08T05:47:45.630Z,4
2017-12-08T05:48:26.195Z,4
2017-12-08T05:49:06.770Z,4
2017-12-08T05:49:47.650Z,4
2017-12-08T05:50:28.346Z,4
2017-12-08T05:51:08.923Z,4
2017-12-08T05:51:49.620Z,4
2017-12-08T05:52:30.206Z,4
2017-12-08T05:53:10.806Z,4
2017-12-08T05:53:51.424Z,4
2017-12-08T05:54:31.998Z,4
2017-12-08T05:55:12.590Z,4
2017-12-08T05:55:53.709Z,4
2017-12-08T05:56:34.270Z,4
2017-12-08T05:57:14.834Z,4
2017-12-08T05:57:55.408Z,4
2017-12-08T05:58:36.036Z,4
2017-12-08T05:59:16.641Z,4
2017-12-08T05:59:57.206Z,4
2017-12-08T06:00:37.775Z,4
2017-12-08T06:01:18.346Z,4
2017-12-08T06:01:58.940Z,4
2017-12-08T06:02:39.512Z,4
2017-12-08T06:03:20.081Z,4
2017-12-08T06:04:01.023Z,4
2017-12-08T06:04:41.915Z,4
2017-12-08T06:05:22.662Z,4
2017-12-08T06:06:03.454Z,4
2017-12-08T06:06:44.270Z,4
2017-12-08T06:07:25.127Z,4
2017-12-08T06:08:06.156Z,4
2017-12-08T06:08:47.064Z,4
2017-12-08T06:09:31.390Z,4
2017-12-08T06:10:12.493Z,4
2017-12-08T06:10:53.297Z,4
2017-12-08T06:11:34.293Z,4
2017-12-08T06:12:15.015Z,4
2017-12-08T06:12:56.016Z,4
2017-12-08T06:13:36.645Z,4
2017-12-08T06:14:17.337Z,4
2017-12-08T06:14:58.014Z,0
2017-12-08T06:15:38.964Z,4
2017-12-08T06:16:19.810Z,4
2017-12-08T06:17:00.834Z,4
2017-12-08T06:17:41.662Z,4
2017-12-08T06:18:22.560Z,4
2017-12-08T06:19:03.265Z,0
2017-12-08T06:19:44.327Z,4
2017-12-08T06:20:24.935Z,4
2017-12-08T06:21:05.498Z,4
2017-12-08T06:21:46.977Z,4
2017-12-08T06:22:27.543Z,0
2017-12-08T06:23:08.162Z,0
2017-12-08T06:23:48.710Z,0
2017-12-08T06:24:29.283Z,0
2017-12-08T06:25:09.842Z,0
2017-12-08T06:25:50.398Z,0
2017-12-08T06:26:30.977Z,0
2017-12-08T06:27:11.546Z,0
2017-12-08T06:27:52.129Z,0
2017-12-08T06:28:32.698Z,0
2017-12-08T06:29:13.263Z,0
2017-12-08T06:29:53.886Z,0
2017-12-08T06:30:34.452Z,0
2017-12-08T06:31:15.120Z,4
2017-12-08T06:31:55.693Z,4
2017-12-08T06:32:36.633Z,4
2017-12-08T06:33:17.511Z,4
2017-12-08T06:33:58.395Z,0
2017-12-08T06:34:39.029Z,4
2017-12-08T06:35:19.949Z,4
2017-12-08T06:36:00.617Z,4
2017-12-08T06:36:41.237Z,4
2017-12-08T06:37:21.937Z,4
2017-12-08T06:38:02.542Z,4
2017-12-08T06:38:43.105Z,4
2017-12-08T06:39:23.827Z,8
2017-12-08T06:40:04.826Z,8
2017-12-08T06:40:45.701Z,8
2017-12-08T06:41:26.471Z,8
2017-12-08T06:42:07.319Z,8
2017-12-08T06:42:48.131Z,12
2017-12-08T06:43:29.096Z,12
2017-12-08T06:44:09.788Z,16
2017-12-08T06:44:50.394Z,16
2017-12-08T06:45:30.997Z,16
2017-12-08T06:46:11.568Z,20
2017-12-08T06:46:52.173Z,20
2017-12-08T06:47:32.744Z,24
2017-12-08T06:48:13.316Z,28
2017-12-08T06:48:53.913Z,32
2017-12-08T06:49:34.473Z,32
2017-12-08T06:50:15.161Z,28
2017-12-08T06:50:55.855Z,40
2017-12-08T06:51:36.614Z,52
2017-12-08T06:52:17.222Z,60
2017-12-08T06:52:57.787Z,68
2017-12-08T06:53:38.732Z,72
2017-12-08T06:54:19.501Z,84
2017-12-08T06:55:00.203Z,92
2017-12-08T06:55:40.937Z,96
2017-12-08T06:56:21.504Z,104
2017-12-08T06:57:02.331Z,116
2017-12-08T06:57:43.063Z,120
2017-12-08T06:58:23.810Z,120
2017-12-08T06:59:04.653Z,136
2017-12-08T06:59:45.373Z,148
2017-12-08T07:00:25.935Z,152
2017-12-08T07:01:06.516Z,156
2017-12-08T07:01:47.277Z,172
2017-12-08T07:02:28.425Z,180
2017-12-08T07:03:08.914Z,184
2017-12-08T07:03:49.492Z,192
2017-12-08T07:04:30.051Z,200
2017-12-08T07:05:10.710Z,212
2017-12-08T07:05:51.927Z,220
2017-12-08T07:06:32.611Z,228
2017-12-08T07:07:13.246Z,236
2017-12-08T07:07:53.836Z,256
2017-12-08T07:08:34.645Z,272
2017-12-08T07:09:15.526Z,280
2017-12-08T07:09:56.387Z,292
2017-12-08T07:12:30.284Z,336
2017-12-08T07:13:11.085Z,344
2017-12-08T07:13:51.920Z,348
2017-12-08T07:14:32.915Z,340
2017-12-08T07:15:13.573Z,328
2017-12-08T07:15:54.461Z,316
2017-12-08T07:16:35.291Z,320
2017-12-08T07:17:16.158Z,332
2017-12-08T07:17:56.775Z,356
2017-12-08T07:18:37.550Z,376
2017-12-08T07:19:18.449Z,392
2017-12-08T07:19:59.074Z,416
2017-12-08T07:20:39.662Z,444
2017-12-08T07:21:20.258Z,468
2017-12-08T07:22:00.883Z,476
2017-12-08T07:22:42.040Z,492
2017-12-08T07:23:22.893Z,540
2017-12-08T07:24:03.791Z,576
2017-12-08T07:24:44.625Z,624
2017-12-08T07:25:25.234Z,648
2017-12-08T07:26:05.988Z,676
2017-12-08T07:26:47.785Z,700
2017-12-08T07:27:28.522Z,712
2017-12-08T07:28:09.468Z,732
2017-12-08T07:28:50.529Z,752
2017-12-08T07:29:31.447Z,768
2017-12-08T07:30:12.404Z,780
2017-12-08T07:30:53.360Z,800
2017-12-08T07:31:34.155Z,816
2017-12-08T07:32:14.991Z,836
2017-12-08T07:32:55.785Z,868
2017-12-08T07:33:36.432Z,900
2017-12-08T07:34:17.028Z,928
2017-12-08T07:34:57.697Z,956
2017-12-08T07:35:38.270Z,984
2017-12-08T07:36:18.867Z,1016
2017-12-08T07:36:59.519Z,1052
2017-12-08T07:37:40.080Z,1072
2017-12-08T07:38:20.647Z,1088
2017-12-08T07:39:01.239Z,1112
2017-12-08T07:39:42.124Z,1132
2017-12-08T07:40:22.955Z,1148
2017-12-08T07:41:03.845Z,1176
2017-12-08T07:41:44.468Z,1196
2017-12-08T07:42:25.045Z,1220
2017-12-08T07:43:05.643Z,1244
2017-12-08T07:43:46.206Z,1256
2017-12-08T07:44:26.801Z,1276
2017-12-08T07:45:07.398Z,1296
2017-12-08T07:45:47.964Z,1312
2017-12-08T07:46:28.531Z,1324
2017-12-08T07:47:09.100Z,1340
2017-12-08T07:47:49.668Z,1352
2017-12-08T07:48:30.230Z,1372
2017-12-08T07:49:10.946Z,1392
2017-12-08T07:49:55.614Z,1416
2017-12-08T07:50:36.265Z,1440
2017-12-08T07:51:16.873Z,1456
2017-12-08T07:51:57.621Z,1484
2017-12-08T07:52:38.308Z,1504
2017-12-08T07:53:18.902Z,1528
2017-12-08T07:53:59.488Z,1552
2017-12-08T07:54:40.062Z,1572
2017-12-08T07:55:20.635Z,1556
2017-12-08T07:56:01.230Z,1596
2017-12-08T07:56:41.798Z,1628
2017-12-08T07:57:22.395Z,1628
2017-12-08T07:58:03.804Z,1564
2017-12-08T07:58:44.377Z,1560
2017-12-08T07:59:24.961Z,1588
2017-12-08T08:00:05.550Z,1644
2017-12-08T08:00:46.127Z,1672
2017-12-08T08:01:26.709Z,1724
2017-12-08T08:02:07.374Z,1704
2017-12-08T08:02:47.935Z,1736
2017-12-08T08:03:28.509Z,1804
2017-12-08T08:04:09.065Z,1864
2017-12-08T08:04:49.672Z,1912
2017-12-08T08:05:30.248Z,2012
2017-12-08T08:06:10.821Z,2096
2017-12-08T08:06:51.401Z,2152
2017-12-08T08:07:31.980Z,2200
2017-12-08T08:08:12.565Z,2252
2017-12-08T08:08:53.196Z,2416
2017-12-08T08:09:33.786Z,2512
2017-12-08T08:10:14.386Z,2632
2017-12-08T08:10:55.050Z,2760
2017-12-08T08:11:35.597Z,2656
2017-12-08T08:12:16.167Z,2368
2017-12-08T08:12:56.783Z,2428
2017-12-08T08:13:37.358Z,2416
2017-12-08T08:14:17.944Z,2436
2017-12-08T08:14:58.515Z,2660
2017-12-08T08:15:39.092Z,2760
2017-12-08T08:16:19.672Z,2820
2017-12-08T08:17:00.248Z,3156
2017-12-08T08:17:40.814Z,3348
2017-12-08T08:18:21.403Z,3324
2017-12-08T08:19:01.962Z,3124
2017-12-08T08:19:42.523Z,2924
2017-12-08T08:20:23.109Z,2956
2017-12-08T08:21:03.694Z,2796
2017-12-08T08:21:44.268Z,2600
2017-12-08T08:22:24.864Z,2544
2017-12-08T08:23:05.445Z,2536
2017-12-08T08:23:46.021Z,2548
2017-12-08T08:24:26.592Z,2552
2017-12-08T08:25:07.163Z,2552
2017-12-08T08:25:47.785Z,2544
2017-12-08T08:26:28.330Z,2552
2017-12-08T08:27:08.896Z,2572
2017-12-08T08:27:49.490Z,2608
2017-12-08T08:28:30.064Z,2632
2017-12-08T08:29:10.639Z,2656
2017-12-08T08:29:51.207Z,2672
2017-12-08T08:30:31.775Z,2684
2017-12-08T08:31:12.352Z,2708
2017-12-08T08:31:52.924Z,2736
2017-12-08T08:32:33.499Z,2760
2017-12-08T08:33:14.065Z,2800
2017-12-08T08:33:54.673Z,2856
2017-12-08T08:34:35.240Z,2896
2017-12-08T08:35:15.831Z,2920
2017-12-08T08:35:56.396Z,2940
2017-12-08T08:36:36.982Z,2972
2017-12-08T08:37:17.561Z,3004
2017-12-08T08:37:58.160Z,3060
2017-12-08T08:38:38.721Z,3780
2017-12-08T08:39:19.291Z,6144
2017-12-08T08:39:59.942Z,10680
2017-12-08T08:40:40.525Z,12272
2017-12-08T08:41:21.099Z,11516
2017-12-08T08:42:01.715Z,9116
2017-12-08T08:42:42.299Z,8028
2017-12-08T08:43:22.893Z,6984
2017-12-08T08:44:03.516Z,6060
2017-12-08T08:44:44.055Z,6816
2017-12-08T08:45:24.643Z,10068
2017-12-08T08:46:05.211Z,14208
2017-12-08T08:46:45.810Z,16000
2017-12-08T08:47:26.391Z,16864
2017-12-08T08:48:06.966Z,17472
2017-12-08T08:48:47.604Z,18144
2017-12-08T08:49:28.167Z,17728
2017-12-08T08:50:08.746Z,15968
2017-12-08T08:50:49.315Z,13664
2017-12-08T08:51:29.900Z,13632
2017-12-08T08:52:10.495Z,14208
2017-12-08T08:52:51.069Z,15392
2017-12-08T08:53:31.685Z,14432
2017-12-08T08:54:12.272Z,15968
2017-12-08T08:54:52.873Z,12888
2017-12-08T08:55:33.516Z,14816
2017-12-08T08:56:14.131Z,8392
2017-12-08T08:56:54.747Z,11748
2017-12-08T08:57:35.357Z,15200
2017-12-08T08:58:15.948Z,6228
2017-12-08T08:58:56.625Z,3232
2017-12-08T08:59:37.321Z,3888
2017-12-08T09:00:17.899Z,19008
2017-12-08T09:00:58.478Z,19168
2017-12-08T09:01:39.054Z,22144
2017-12-08T09:02:19.656Z,19744
2017-12-08T09:03:00.281Z,4876
2017-12-08T09:03:40.867Z,2292
2017-12-08T09:04:21.466Z,1812
2017-12-08T09:05:02.050Z,2156
2017-12-08T09:05:42.630Z,2248
2017-12-08T09:06:23.308Z,2912
2017-12-08T09:07:03.902Z,11692
2017-12-08T09:07:44.481Z,18400
2017-12-08T09:08:25.085Z,16384
2017-12-08T09:09:05.662Z,9696
2017-12-08T09:09:46.234Z,17280
2017-12-08T09:10:26.815Z,7924
2017-12-08T09:11:07.456Z,23072
2017-12-08T09:11:48.021Z,22176
2017-12-08T09:12:28.609Z,15264
2017-12-08T09:13:09.182Z,6792
2017-12-08T09:13:49.816Z,12564
2017-12-08T09:14:30.399Z,6112
2017-12-08T09:15:10.995Z,5188
2017-12-08T09:15:51.572Z,14624
2017-12-08T09:16:32.148Z,4920
2017-12-08T09:17:12.734Z,3928
2017-12-08T09:17:53.318Z,4224
2017-12-08T09:18:33.918Z,4732
2017-12-08T09:19:14.538Z,3560
2017-12-08T09:19:55.111Z,3528
2017-12-08T09:20:35.694Z,3408
2017-12-08T09:21:16.304Z,4304
2017-12-08T09:21:56.870Z,3040
2017-12-08T09:22:37.494Z,4068
2017-12-08T09:23:18.090Z,4756
2017-12-08T09:23:58.684Z,4112
2017-12-08T09:24:39.229Z,9900
2017-12-08T09:25:19.811Z,4576
2017-12-08T09:26:00.382Z,6780
2017-12-08T09:26:41.034Z,8828
2017-12-08T09:27:21.570Z,8184
2017-12-08T09:28:02.158Z,10932
2017-12-08T09:28:42.751Z,17184
2017-12-08T09:29:23.643Z,20224
2017-12-08T09:30:04.324Z,11764
2017-12-08T09:30:44.911Z,15744
2017-12-08T09:31:25.496Z,4148
2017-12-08T09:32:06.113Z,3580
2017-12-08T09:32:46.702Z,3104
2017-12-08T09:33:27.317Z,3052
2017-12-08T09:34:08.314Z,3392
2017-12-08T09:34:48.889Z,4824
2017-12-08T09:35:29.487Z,8292
2017-12-08T09:36:10.097Z,11656
2017-12-08T09:36:50.684Z,7468
2017-12-08T09:37:31.276Z,10904
2017-12-08T09:38:11.876Z,11416
2017-12-08T09:38:52.530Z,9580
2017-12-08T09:39:33.094Z,9164
2017-12-08T09:40:13.722Z,9316
2017-12-08T09:40:54.296Z,9800
2017-12-08T09:41:34.871Z,9672
2017-12-08T09:42:15.443Z,11956
2017-12-08T09:42:56.012Z,13920
2017-12-08T09:43:36.764Z,14496